Sealand Washington — 9HA3421 — position and weather

sailwx.info

Track history (hours):
 
Tides and Currents Weather Stations Pressure Air Temp Water Temp Dewpoint Dewpoint Depression Visibility Wind Speed Wind Dir Waves Ship Positions

Sealand Washington

Last reported at 2017-Oct-18 23:52 UTC. Time now 2017-Oct-22 22:50 UTC.
Position N 32°50' W 079°54'.

Length 304 m; draft 10.5 m.

Type: Ship (hazmat cat C). MMSI: 229577000.

Date/timePositionNaut miles runAvg speedWind from/ knotsBaromVisibWave heightAir tempDewpointWater temp
2017-Oct-18 23:52N 32°50' W 079°54'3 5.2
2017-Oct-18 23:13N 32°47' W 079°54'1 6.4
2017-Oct-18 23:00N 32°46' W 079°53'58 5.3
2017-Oct-18 12:06N 31°55' W 080°27'1 8.9
2017-Oct-18 12:01N 31°56' W 080°28'4 8.9
2017-Oct-18 11:31N 31°56' W 080°33'4 8.1
2017-Oct-18 11:01N 31°56' W 080°38'2 4.4
2017-Oct-18 10:27N 31°56' W 080°40'3 5.6
2017-Oct-18 10:00N 31°57' W 080°43'612.4
2017-Oct-18 09:30N 32°01' W 080°48'510.6
2017-Oct-18 09:00N 32°02' W 080°55'510.0
2017-Oct-18 08:30N 32°05' W 080°59'4 7.6
2017-Oct-18 08:00N 32°05' W 081°04'3 5.3
2017-Oct-18 07:30N 32°06' W 081°07'2 4.6
2017-Oct-18 07:00N 32°08' W 081°08'0 0.1
2017-Oct-18 06:30N 32°08' W 081°08'0 0.0
2017-Oct-18 05:35N 32°08' W 081°08'0 0.0
2017-Oct-18 05:29N 32°08' W 081°08'0 0.0
2017-Oct-18 04:59N 32°08' W 081°08'0 0.0
2017-Oct-18 04:29N 32°08' W 081°08'0 0.0
2017-Oct-18 03:42N 32°08' W 081°08'0 0.0
2017-Oct-18 03:30N 32°08' W 081°08'0 0.0
2017-Oct-18 02:54N 32°08' W 081°08'0 0.0
2017-Oct-18 02:30N 32°08' W 081°08'0 0.0
2017-Oct-18 02:00N 32°08' W 081°08'0 0.0
2017-Oct-18 01:24N 32°08' W 081°08'0 0.0
2017-Oct-18 00:59N 32°08' W 081°08'0 0.0
2017-Oct-18 00:30N 32°08' W 081°08'0 0.0
2017-Oct-18 00:00N 32°08' W 081°08'0 0.0
2017-Oct-17 23:30N 32°08' W 081°08'0 0.0
2017-Oct-17 22:59N 32°08' W 081°08'0 0.0
2017-Oct-17 22:30N 32°08' W 081°08'0 0.0
2017-Oct-17 22:00N 32°08' W 081°08'0 0.0
2017-Oct-17 21:30N 32°08' W 081°08'0 0.0
2017-Oct-17 21:00N 32°08' W 081°08'0 0.0
2017-Oct-17 20:30N 32°08' W 081°08'0 0.0
2017-Oct-17 20:00N 32°08' W 081°08'0 0.0
2017-Oct-17 19:30N 32°08' W 081°08'0 0.0
2017-Oct-17 19:00N 32°08' W 081°08'0 0.0
2017-Oct-17 18:29N 32°08' W 081°08'0 0.0
2017-Oct-17 18:00N 32°08' W 081°08'0 0.0
2017-Oct-17 17:29N 32°08' W 081°08'0 0.0
2017-Oct-17 17:00N 32°08' W 081°08'0 0.0
2017-Oct-17 16:29N 32°08' W 081°08'0 0.0
2017-Oct-17 15:59N 32°08' W 081°08'0 0.0
2017-Oct-17 15:11N 32°08' W 081°08'0 0.0
2017-Oct-17 15:00N 32°08' W 081°08'0 0.0
2017-Oct-17 14:30N 32°08' W 081°08'0 0.0
2017-Oct-17 14:00N 32°08' W 081°08'0 0.0
2017-Oct-17 13:18N 32°08' W 081°08'0 0.0
2017-Oct-17 12:59N 32°08' W 081°08'0 0.2
2017-Oct-17 12:30N 32°08' W 081°08'3 5.9
2017-Oct-17 12:00N 32°05' W 081°06'3 6.3
2017-Oct-17 11:30N 32°05' W 081°02'510.2
2017-Oct-17 11:01N 32°04' W 080°57'713.7
2017-Oct-17 10:30N 32°02' W 080°49'816.3
2017-Oct-17 10:01N 31°57' W 080°41'713.8
2017-Oct-17 09:31N 31°53' W 080°34'2 4.4
2017-Oct-17 09:00N 31°52' W 080°32'1 2.3
2017-Oct-17 08:30N 31°53' W 080°31'2 3.7
2017-Oct-17 07:59N 31°53' W 080°29'12 9.4
2017-Oct-17 06:44N 31°57' W 080°16'26810.9
2017-Oct-16 06:08N 34°25' W 075°49'2013.0
2017-Oct-16 04:38N 34°40' W 075°33'413.2
2017-Oct-16 04:21N 34°42' W 075°30'2313.3
2017-Oct-16 02:38N 34°59' W 075°11'213.4
2017-Oct-16 02:30N 35°01' W 075°10'1012.3
2017-Oct-16 01:39N 35°10' W 075°04'311.9
2017-Oct-16 01:23N 35°13' W 075°03'511.6
2017-Oct-16 01:00N 35°17' W 075°03'9511.9
2017-Oct-15 17:03N 36°47' W 075°44'010.4
2017-Oct-15 17:00N 36°47' W 075°44'610.5
2017-Oct-15 16:28N 36°50' W 075°50'510.9
2017-Oct-15 16:00N 36°54' W 075°54'611.1
2017-Oct-15 15:31N 36°57' W 076°00'612.6
2017-Oct-15 15:00N 36°59' W 076°08'1110.6
2017-Oct-15 14:00N 36°56' W 076°20'4 8.1
2017-Oct-15 13:30N 36°52' W 076°19'0 0.1
2017-Oct-15 06:37N 36°51' W 076°20'0 0.0
2017-Oct-15 06:28N 36°51' W 076°20'0 0.0
2017-Oct-15 05:58N 36°51' W 076°20'0 0.0
2017-Oct-15 05:28N 36°51' W 076°20'0 0.0
2017-Oct-15 04:58N 36°51' W 076°20'0 0.0
2017-Oct-15 04:28N 36°51' W 076°20'0 0.0
2017-Oct-15 03:58N 36°51' W 076°20'0 0.0
2017-Oct-15 03:28N 36°51' W 076°20'0 0.0
2017-Oct-15 02:58N 36°51' W 076°20'0 0.0
2017-Oct-15 02:28N 36°51' W 076°20'0 0.0
2017-Oct-15 01:58N 36°51' W 076°20'0 0.0
2017-Oct-15 01:28N 36°51' W 076°20'0 0.0
2017-Oct-15 00:58N 36°51' W 076°20'0 0.0
2017-Oct-15 00:28N 36°51' W 076°20'0 0.0
2017-Oct-14 23:58N 36°51' W 076°20'0 0.0
2017-Oct-14 21:28N 36°51' W 076°20'0 0.9
2017-Oct-14 21:00N 36°52' W 076°19'3 6.8
2017-Oct-14 20:30N 36°55' W 076°20'510.7
2017-Oct-14 20:00N 36°60' W 076°18'816.6
2017-Oct-14 19:31N 36°59' W 076°07'816.2
2017-Oct-14 19:00N 36°57' W 075°58'5 9.9
2017-Oct-14 18:30N 36°53' W 075°53'611.8
2017-Oct-14 17:59N 36°50' W 075°47'712.4
2017-Oct-14 17:28N 36°49' W 075°38'41810.4
2017-Oct-13 01:27N 42°17' W 070°03'4 9.3
2017-Oct-13 00:59N 42°17' W 070°09'5 9.5
2017-Oct-13 00:30N 42°18' W 070°15'5 9.8
2017-Oct-13 00:00N 42°18' W 070°21'5 9.7
2017-Oct-12 23:30N 42°19' W 070°28'5 9.2
2017-Oct-12 23:00N 42°19' W 070°34'5 9.4
2017-Oct-12 22:30N 42°19' W 070°40'5 9.5
2017-Oct-12 22:00N 42°22' W 070°46'5 9.8
2017-Oct-12 21:31N 42°24' W 070°52'4 8.8
2017-Oct-12 21:00N 42°21' W 070°56'3 6.8
2017-Oct-12 20:30N 42°21' W 071°01'0 0.6
2017-Oct-12 20:00N 42°21' W 071°01'0 0.0
2017-Oct-12 19:30N 42°21' W 071°01'0 0.0
2017-Oct-12 19:00N 42°21' W 071°01'0 0.0
2017-Oct-12 18:30N 42°21' W 071°01'0 0.0
2017-Oct-12 18:00N 42°21' W 071°01'0 0.0
2017-Oct-12 17:30N 42°21' W 071°01'0 0.0
2017-Oct-12 17:00N 42°21' W 071°01'0 0.0
2017-Oct-12 16:30N 42°21' W 071°01'0 0.0
2017-Oct-12 16:00N 42°21' W 071°01'0 0.0
2017-Oct-12 15:30N 42°21' W 071°01'0 0.0
2017-Oct-12 15:00N 42°21' W 071°01'0 0.0
2017-Oct-12 14:30N 42°21' W 071°01'0 0.0
2017-Oct-12 14:00N 42°21' W 071°01'0 0.0
2017-Oct-12 13:30N 42°21' W 071°01'0 0.0
2017-Oct-12 13:00N 42°21' W 071°01'0 0.0
2017-Oct-12 12:30N 42°21' W 071°01'0 0.0
2017-Oct-12 12:00N 42°21' W 071°01'0 0.0
2017-Oct-12 11:30N 42°21' W 071°01'0 0.0
2017-Oct-12 11:00N 42°21' W 071°01'0 0.0
2017-Oct-12 10:30N 42°21' W 071°01'0 0.0
2017-Oct-12 10:00N 42°21' W 071°01'0 0.0
2017-Oct-12 09:30N 42°21' W 071°01'0 0.0
2017-Oct-12 09:00N 42°21' W 071°01'0 0.0
2017-Oct-12 08:30N 42°21' W 071°01'1 1.5
2017-Oct-12 08:00N 42°20' W 071°00'4 8.0
2017-Oct-12 07:30N 42°22' W 070°55'5 9.1
2017-Oct-12 07:00N 42°24' W 070°50'3 6.1
2017-Oct-12 06:30N 42°23' W 070°46'4 8.4
2017-Oct-12 06:00N 42°22' W 070°40'4 8.8
2017-Oct-12 05:30N 42°22' W 070°34'5 9.3
2017-Oct-12 05:00N 42°21' W 070°28'4 9.0
2017-Oct-12 04:30N 42°21' W 070°22'5 9.1
2017-Oct-12 04:00N 42°20' W 070°16'5 9.4
2017-Oct-12 03:30N 42°20' W 070°09'5 9.7
2017-Oct-12 03:00N 42°19' W 070°03'4 8.6
2017-Oct-12 02:30N 42°16' W 069°58'18 9.5
2017-Oct-12 00:36N 42°00' W 069°47'1 9.6
2017-Oct-12 00:28N 41°59' W 069°47'4 9.6
2017-Oct-12 00:00N 41°55' W 069°44'5 9.7
2017-Oct-11 23:29N 41°51' W 069°41'5 9.8
2017-Oct-11 23:00N 41°47' W 069°38'510.0
2017-Oct-11 22:30N 41°42' W 069°35'5 9.7
2017-Oct-11 22:00N 41°38' W 069°32'5 9.7
2017-Oct-11 21:30N 41°33' W 069°29'5 9.6
2017-Oct-11 21:00N 41°29' W 069°26'5 9.2
2017-Oct-11 20:30N 41°25' W 069°23'5 9.8
2017-Oct-11 20:00N 41°21' W 069°21'5 9.6
2017-Oct-11 19:30N 41°16' W 069°18'5 9.8
2017-Oct-11 19:00N 41°12' W 069°14'40013.4
2017-Oct-10 13:05N 36°49' W 075°41'114.8
2017-Oct-10 13:00N 36°49' W 075°43'714.1
2017-Oct-10 12:30N 36°51' W 075°51'715.1
2017-Oct-10 12:00N 36°56' W 075°58'5 9.5
2017-Oct-10 11:30N 37°00' W 076°02'1119.9
2017-Oct-10 10:58N 37°09' W 076°09'3317.5
2017-Oct-10 09:03N 37°43' W 076°11'1219.1
2017-Oct-10 08:25N 37°54' W 076°09'818.9
2017-Oct-10 08:00N 38°02' W 076°13'1019.6
2017-Oct-10 07:30N 38°12' W 076°14'1019.9
2017-Oct-10 07:01N 38°21' W 076°19'1020.2
2017-Oct-10 06:30N 38°30' W 076°24'919.0
2017-Oct-10 06:01N 38°39' W 076°25'1019.6
2017-Oct-10 05:31N 38°49' W 076°25'1019.7
2017-Oct-10 05:01N 38°59' W 076°23'713.5
2017-Oct-10 04:30N 39°06' W 076°24'713.3
2017-Oct-10 04:01N 39°11' W 076°28'510.6
2017-Oct-10 03:30N 39°15' W 076°33'1 1.5
2017-Oct-10 03:00N 39°15' W 076°33'0 0.0
2017-Oct-10 02:29N 39°15' W 076°33'0 0.0
2017-Oct-10 01:59N 39°15' W 076°33'0 0.0
2017-Oct-10 01:29N 39°15' W 076°33'0 0.0
2017-Oct-10 00:59N 39°15' W 076°33'0 0.0
2017-Oct-10 00:29N 39°15' W 076°33'0 0.0
2017-Oct-09 23:59N 39°15' W 076°33'0 0.0
2017-Oct-09 23:29N 39°15' W 076°33'0 0.0
2017-Oct-09 22:59N 39°15' W 076°33'0 0.0
2017-Oct-09 22:29N 39°15' W 076°33'0 0.0
2017-Oct-09 21:53N 39°15' W 076°33'0 0.0
2017-Oct-09 21:26N 39°15' W 076°33'0 0.0
2017-Oct-09 20:56N 39°15' W 076°33'0 0.0
2017-Oct-09 20:26N 39°15' W 076°33'0 0.0
2017-Oct-09 19:59N 39°15' W 076°33'0 0.0
2017-Oct-09 19:29N 39°15' W 076°33'0 0.0
2017-Oct-09 18:59N 39°15' W 076°33'0 0.0
2017-Oct-09 18:26N 39°15' W 076°33'0 0.0
2017-Oct-09 17:58N 39°15' W 076°33'0 0.0
2017-Oct-09 17:29N 39°15' W 076°33'0 0.0
2017-Oct-09 16:59N 39°15' W 076°33'0 0.0
2017-Oct-09 16:29N 39°15' W 076°33'0 0.0
2017-Oct-09 15:56N 39°15' W 076°33'0 0.0
2017-Oct-09 15:26N 39°15' W 076°33'0 0.0
2017-Oct-09 14:59N 39°15' W 076°33'0 0.0
2017-Oct-09 14:29N 39°15' W 076°33'0 0.0
2017-Oct-09 13:47N 39°15' W 076°33'0 0.0
2017-Oct-09 13:23N 39°15' W 076°33'0 0.0
2017-Oct-09 12:59N 39°15' W 076°33'0 0.0
2017-Oct-09 12:29N 39°15' W 076°33'0 0.0
2017-Oct-09 11:59N 39°15' W 076°33'0 0.0
2017-Oct-09 11:20N 39°15' W 076°33'0 0.0
2017-Oct-09 10:56N 39°15' W 076°33'0 0.0
2017-Oct-09 10:29N 39°15' W 076°33'0 0.0
2017-Oct-09 09:59N 39°15' W 076°33'0 0.0
2017-Oct-09 09:29N 39°15' W 076°33'0 0.0
2017-Oct-09 08:59N 39°15' W 076°33'0 0.0
2017-Oct-09 08:29N 39°15' W 076°33'0 0.0
2017-Oct-09 07:59N 39°15' W 076°33'0 0.0
2017-Oct-09 07:29N 39°15' W 076°33'0 0.0
2017-Oct-09 06:50N 39°15' W 076°33'0 0.0
2017-Oct-09 06:26N 39°15' W 076°33'0 0.0
2017-Oct-09 05:53N 39°15' W 076°33'0 0.0
2017-Oct-09 05:29N 39°15' W 076°33'0 0.0
2017-Oct-09 04:59N 39°15' W 076°33'0 0.0
2017-Oct-09 04:29N 39°15' W 076°33'0 0.0
2017-Oct-09 03:59N 39°15' W 076°33'0 0.0
2017-Oct-09 03:29N 39°15' W 076°33'0 0.0
2017-Oct-09 02:59N 39°15' W 076°33'0 0.0
2017-Oct-09 02:17N 39°15' W 076°33'0 0.0
2017-Oct-09 01:59N 39°15' W 076°33'0 0.0
2017-Oct-09 01:23N 39°15' W 076°33'0 0.0
2017-Oct-09 00:59N 39°15' W 076°33'0 0.0
2017-Oct-09 00:29N 39°15' W 076°33'0 0.0
2017-Oct-08 23:59N 39°15' W 076°33'  
Track history (hours):
 
Tides and Currents Weather Stations Pressure Air Temp Water Temp Dewpoint Dewpoint Depression Visibility Wind Speed Wind Dir Waves Ship Positions

Sealand Washington

Last reported at 2017-Oct-18 23:52 UTC. Time now 2017-Oct-22 22:50 UTC.
Position N 32°50' W 079°54'.

Length 304 m; draft 10.5 m.

Type: Ship (hazmat cat C). MMSI: 229577000.

Date/timePositionNaut miles runAvg speedWind from/ knotsBaromVisibWave heightAir tempDewpointWater temp
2017-Oct-18 23:52N 32°50' W 079°54'3 5.2
2017-Oct-18 23:13N 32°47' W 079°54'1 6.4
2017-Oct-18 23:00N 32°46' W 079°53'58 5.3
2017-Oct-18 12:06N 31°55' W 080°27'1 8.9
2017-Oct-18 12:01N 31°56' W 080°28'4 8.9
2017-Oct-18 11:31N 31°56' W 080°33'4 8.1
2017-Oct-18 11:01N 31°56' W 080°38'2 4.4
2017-Oct-18 10:27N 31°56' W 080°40'3 5.6
2017-Oct-18 10:00N 31°57' W 080°43'612.4
2017-Oct-18 09:30N 32°01' W 080°48'510.6
2017-Oct-18 09:00N 32°02' W 080°55'510.0
2017-Oct-18 08:30N 32°05' W 080°59'4 7.6
2017-Oct-18 08:00N 32°05' W 081°04'3 5.3
2017-Oct-18 07:30N 32°06' W 081°07'2 4.6
2017-Oct-18 07:00N 32°08' W 081°08'0 0.1
2017-Oct-18 06:30N 32°08' W 081°08'0 0.0
2017-Oct-18 05:35N 32°08' W 081°08'0 0.0
2017-Oct-18 05:29N 32°08' W 081°08'0 0.0
2017-Oct-18 04:59N 32°08' W 081°08'0 0.0
2017-Oct-18 04:29N 32°08' W 081°08'0 0.0
2017-Oct-18 03:42N 32°08' W 081°08'0 0.0
2017-Oct-18 03:30N 32°08' W 081°08'0 0.0
2017-Oct-18 02:54N 32°08' W 081°08'0 0.0
2017-Oct-18 02:30N 32°08' W 081°08'0 0.0
2017-Oct-18 02:00N 32°08' W 081°08'0 0.0
2017-Oct-18 01:24N 32°08' W 081°08'0 0.0
2017-Oct-18 00:59N 32°08' W 081°08'0 0.0
2017-Oct-18 00:30N 32°08' W 081°08'0 0.0
2017-Oct-18 00:00N 32°08' W 081°08'0 0.0
2017-Oct-17 23:30N 32°08' W 081°08'0 0.0
2017-Oct-17 22:59N 32°08' W 081°08'0 0.0
2017-Oct-17 22:30N 32°08' W 081°08'0 0.0
2017-Oct-17 22:00N 32°08' W 081°08'0 0.0
2017-Oct-17 21:30N 32°08' W 081°08'0 0.0
2017-Oct-17 21:00N 32°08' W 081°08'0 0.0
2017-Oct-17 20:30N 32°08' W 081°08'0 0.0
2017-Oct-17 20:00N 32°08' W 081°08'0 0.0
2017-Oct-17 19:30N 32°08' W 081°08'0 0.0
2017-Oct-17 19:00N 32°08' W 081°08'0 0.0
2017-Oct-17 18:29N 32°08' W 081°08'0 0.0
2017-Oct-17 18:00N 32°08' W 081°08'0 0.0
2017-Oct-17 17:29N 32°08' W 081°08'0 0.0
2017-Oct-17 17:00N 32°08' W 081°08'0 0.0
2017-Oct-17 16:29N 32°08' W 081°08'0 0.0
2017-Oct-17 15:59N 32°08' W 081°08'0 0.0
2017-Oct-17 15:11N 32°08' W 081°08'0 0.0
2017-Oct-17 15:00N 32°08' W 081°08'0 0.0
2017-Oct-17 14:30N 32°08' W 081°08'0 0.0
2017-Oct-17 14:00N 32°08' W 081°08'0 0.0
2017-Oct-17 13:18N 32°08' W 081°08'0 0.0
2017-Oct-17 12:59N 32°08' W 081°08'0 0.2
2017-Oct-17 12:30N 32°08' W 081°08'3 5.9
2017-Oct-17 12:00N 32°05' W 081°06'3 6.3
2017-Oct-17 11:30N 32°05' W 081°02'510.2
2017-Oct-17 11:01N 32°04' W 080°57'713.7
2017-Oct-17 10:30N 32°02' W 080°49'816.3
2017-Oct-17 10:01N 31°57' W 080°41'713.8
2017-Oct-17 09:31N 31°53' W 080°34'2 4.4
2017-Oct-17 09:00N 31°52' W 080°32'1 2.3
2017-Oct-17 08:30N 31°53' W 080°31'2 3.7
2017-Oct-17 07:59N 31°53' W 080°29'12 9.4
2017-Oct-17 06:44N 31°57' W 080°16'26810.9
2017-Oct-16 06:08N 34°25' W 075°49'2013.0
2017-Oct-16 04:38N 34°40' W 075°33'413.2
2017-Oct-16 04:21N 34°42' W 075°30'2313.3
2017-Oct-16 02:38N 34°59' W 075°11'213.4
2017-Oct-16 02:30N 35°01' W 075°10'1012.3
2017-Oct-16 01:39N 35°10' W 075°04'311.9
2017-Oct-16 01:23N 35°13' W 075°03'511.6
2017-Oct-16 01:00N 35°17' W 075°03'9511.9
2017-Oct-15 17:03N 36°47' W 075°44'010.4
2017-Oct-15 17:00N 36°47' W 075°44'610.5
2017-Oct-15 16:28N 36°50' W 075°50'510.9
2017-Oct-15 16:00N 36°54' W 075°54'611.1
2017-Oct-15 15:31N 36°57' W 076°00'612.6
2017-Oct-15 15:00N 36°59' W 076°08'1110.6
2017-Oct-15 14:00N 36°56' W 076°20'4 8.1
2017-Oct-15 13:30N 36°52' W 076°19'0 0.1
2017-Oct-15 06:37N 36°51' W 076°20'0 0.0
2017-Oct-15 06:28N 36°51' W 076°20'0 0.0
2017-Oct-15 05:58N 36°51' W 076°20'0 0.0
2017-Oct-15 05:28N 36°51' W 076°20'0 0.0
2017-Oct-15 04:58N 36°51' W 076°20'0 0.0
2017-Oct-15 04:28N 36°51' W 076°20'0 0.0
2017-Oct-15 03:58N 36°51' W 076°20'0 0.0
2017-Oct-15 03:28N 36°51' W 076°20'0 0.0
2017-Oct-15 02:58N 36°51' W 076°20'0 0.0
2017-Oct-15 02:28N 36°51' W 076°20'0 0.0
2017-Oct-15 01:58N 36°51' W 076°20'0 0.0
2017-Oct-15 01:28N 36°51' W 076°20'0 0.0
2017-Oct-15 00:58N 36°51' W 076°20'0 0.0
2017-Oct-15 00:28N 36°51' W 076°20'0 0.0
2017-Oct-14 23:58N 36°51' W 076°20'0 0.0
2017-Oct-14 21:28N 36°51' W 076°20'0 0.9
2017-Oct-14 21:00N 36°52' W 076°19'3 6.8
2017-Oct-14 20:30N 36°55' W 076°20'510.7
2017-Oct-14 20:00N 36°60' W 076°18'816.6
2017-Oct-14 19:31N 36°59' W 076°07'816.2
2017-Oct-14 19:00N 36°57' W 075°58'5 9.9
2017-Oct-14 18:30N 36°53' W 075°53'611.8
2017-Oct-14 17:59N 36°50' W 075°47'712.4
2017-Oct-14 17:28N 36°49' W 075°38'41810.4
2017-Oct-13 01:27N 42°17' W 070°03'4 9.3
2017-Oct-13 00:59N 42°17' W 070°09'5 9.5
2017-Oct-13 00:30N 42°18' W 070°15'5 9.8
2017-Oct-13 00:00N 42°18' W 070°21'5 9.7
2017-Oct-12 23:30N 42°19' W 070°28'5 9.2
2017-Oct-12 23:00N 42°19' W 070°34'5 9.4
2017-Oct-12 22:30N 42°19' W 070°40'5 9.5
2017-Oct-12 22:00N 42°22' W 070°46'5 9.8
2017-Oct-12 21:31N 42°24' W 070°52'4 8.8
2017-Oct-12 21:00N 42°21' W 070°56'3 6.8
2017-Oct-12 20:30N 42°21' W 071°01'0 0.6
2017-Oct-12 20:00N 42°21' W 071°01'0 0.0
2017-Oct-12 19:30N 42°21' W 071°01'0 0.0
2017-Oct-12 19:00N 42°21' W 071°01'0 0.0
2017-Oct-12 18:30N 42°21' W 071°01'0 0.0
2017-Oct-12 18:00N 42°21' W 071°01'0 0.0
2017-Oct-12 17:30N 42°21' W 071°01'0 0.0
2017-Oct-12 17:00N 42°21' W 071°01'0 0.0
2017-Oct-12 16:30N 42°21' W 071°01'0 0.0
2017-Oct-12 16:00N 42°21' W 071°01'0 0.0
2017-Oct-12 15:30N 42°21' W 071°01'0 0.0
2017-Oct-12 15:00N 42°21' W 071°01'0 0.0
2017-Oct-12 14:30N 42°21' W 071°01'0 0.0
2017-Oct-12 14:00N 42°21' W 071°01'0 0.0
2017-Oct-12 13:30N 42°21' W 071°01'0 0.0
2017-Oct-12 13:00N 42°21' W 071°01'0 0.0
2017-Oct-12 12:30N 42°21' W 071°01'0 0.0
2017-Oct-12 12:00N 42°21' W 071°01'0 0.0
2017-Oct-12 11:30N 42°21' W 071°01'0 0.0
2017-Oct-12 11:00N 42°21' W 071°01'0 0.0
2017-Oct-12 10:30N 42°21' W 071°01'0 0.0
2017-Oct-12 10:00N 42°21' W 071°01'0 0.0
2017-Oct-12 09:30N 42°21' W 071°01'0 0.0
2017-Oct-12 09:00N 42°21' W 071°01'0 0.0
2017-Oct-12 08:30N 42°21' W 071°01'1 1.5
2017-Oct-12 08:00N 42°20' W 071°00'4 8.0
2017-Oct-12 07:30N 42°22' W 070°55'5 9.1
2017-Oct-12 07:00N 42°24' W 070°50'3 6.1
2017-Oct-12 06:30N 42°23' W 070°46'4 8.4
2017-Oct-12 06:00N 42°22' W 070°40'4 8.8
2017-Oct-12 05:30N 42°22' W 070°34'5 9.3
2017-Oct-12 05:00N 42°21' W 070°28'4 9.0
2017-Oct-12 04:30N 42°21' W 070°22'5 9.1
2017-Oct-12 04:00N 42°20' W 070°16'5 9.4
2017-Oct-12 03:30N 42°20' W 070°09'5 9.7
2017-Oct-12 03:00N 42°19' W 070°03'4 8.6
2017-Oct-12 02:30N 42°16' W 069°58'18 9.5
2017-Oct-12 00:36N 42°00' W 069°47'1 9.6
2017-Oct-12 00:28N 41°59' W 069°47'4 9.6
2017-Oct-12 00:00N 41°55' W 069°44'5 9.7
2017-Oct-11 23:29N 41°51' W 069°41'5 9.8
2017-Oct-11 23:00N 41°47' W 069°38'510.0
2017-Oct-11 22:30N 41°42' W 069°35'5 9.7
2017-Oct-11 22:00N 41°38' W 069°32'5 9.7
2017-Oct-11 21:30N 41°33' W 069°29'5 9.6
2017-Oct-11 21:00N 41°29' W 069°26'5 9.2
2017-Oct-11 20:30N 41°25' W 069°23'5 9.8
2017-Oct-11 20:00N 41°21' W 069°21'5 9.6
2017-Oct-11 19:30N 41°16' W 069°18'5 9.8
2017-Oct-11 19:00N 41°12' W 069°14'40013.4
2017-Oct-10 13:05N 36°49' W 075°41'114.8
2017-Oct-10 13:00N 36°49' W 075°43'714.1
2017-Oct-10 12:30N 36°51' W 075°51'715.1
2017-Oct-10 12:00N 36°56' W 075°58'5 9.5
2017-Oct-10 11:30N 37°00' W 076°02'1119.9
2017-Oct-10 10:58N 37°09' W 076°09'3317.5
2017-Oct-10 09:03N 37°43' W 076°11'1219.1
2017-Oct-10 08:25N 37°54' W 076°09'818.9
2017-Oct-10 08:00N 38°02' W 076°13'1019.6
2017-Oct-10 07:30N 38°12' W 076°14'1019.9
2017-Oct-10 07:01N 38°21' W 076°19'1020.2
2017-Oct-10 06:30N 38°30' W 076°24'919.0
2017-Oct-10 06:01N 38°39' W 076°25'1019.6
2017-Oct-10 05:31N 38°49' W 076°25'1019.7
2017-Oct-10 05:01N 38°59' W 076°23'713.5
2017-Oct-10 04:30N 39°06' W 076°24'713.3
2017-Oct-10 04:01N 39°11' W 076°28'510.6
2017-Oct-10 03:30N 39°15' W 076°33'1 1.5
2017-Oct-10 03:00N 39°15' W 076°33'0 0.0
2017-Oct-10 02:29N 39°15' W 076°33'0 0.0
2017-Oct-10 01:59N 39°15' W 076°33'0 0.0
2017-Oct-10 01:29N 39°15' W 076°33'0 0.0
2017-Oct-10 00:59N 39°15' W 076°33'0 0.0
2017-Oct-10 00:29N 39°15' W 076°33'0 0.0
2017-Oct-09 23:59N 39°15' W 076°33'0 0.0
2017-Oct-09 23:29N 39°15' W 076°33'0 0.0
2017-Oct-09 22:59N 39°15' W 076°33'0 0.0
2017-Oct-09 22:29N 39°15' W 076°33'0 0.0
2017-Oct-09 21:53N 39°15' W 076°33'0 0.0
2017-Oct-09 21:26N 39°15' W 076°33'0 0.0
2017-Oct-09 20:56N 39°15' W 076°33'0 0.0
2017-Oct-09 20:26N 39°15' W 076°33'0 0.0
2017-Oct-09 19:59N 39°15' W 076°33'0 0.0
2017-Oct-09 19:29N 39°15' W 076°33'0 0.0
2017-Oct-09 18:59N 39°15' W 076°33'0 0.0
2017-Oct-09 18:26N 39°15' W 076°33'0 0.0
2017-Oct-09 17:58N 39°15' W 076°33'0 0.0
2017-Oct-09 17:29N 39°15' W 076°33'0 0.0
2017-Oct-09 16:59N 39°15' W 076°33'0 0.0
2017-Oct-09 16:29N 39°15' W 076°33'0 0.0
2017-Oct-09 15:56N 39°15' W 076°33'0 0.0
2017-Oct-09 15:26N 39°15' W 076°33'0 0.0
2017-Oct-09 14:59N 39°15' W 076°33'0 0.0
2017-Oct-09 14:29N 39°15' W 076°33'0 0.0
2017-Oct-09 13:47N 39°15' W 076°33'0 0.0
2017-Oct-09 13:23N 39°15' W 076°33'0 0.0
2017-Oct-09 12:59N 39°15' W 076°33'0 0.0
2017-Oct-09 12:29N 39°15' W 076°33'0 0.0
2017-Oct-09 11:59N 39°15' W 076°33'0 0.0
2017-Oct-09 11:20N 39°15' W 076°33'0 0.0
2017-Oct-09 10:56N 39°15' W 076°33'0 0.0
2017-Oct-09 10:29N 39°15' W 076°33'0 0.0
2017-Oct-09 09:59N 39°15' W 076°33'0 0.0
2017-Oct-09 09:29N 39°15' W 076°33'0 0.0
2017-Oct-09 08:59N 39°15' W 076°33'0 0.0
2017-Oct-09 08:29N 39°15' W 076°33'0 0.0
2017-Oct-09 07:59N 39°15' W 076°33'0 0.0
2017-Oct-09 07:29N 39°15' W 076°33'0 0.0
2017-Oct-09 06:50N 39°15' W 076°33'0 0.0
2017-Oct-09 06:26N 39°15' W 076°33'0 0.0
2017-Oct-09 05:53N 39°15' W 076°33'0 0.0
2017-Oct-09 05:29N 39°15' W 076°33'0 0.0
2017-Oct-09 04:59N 39°15' W 076°33'0 0.0
2017-Oct-09 04:29N 39°15' W 076°33'0 0.0
2017-Oct-09 03:59N 39°15' W 076°33'0 0.0
2017-Oct-09 03:29N 39°15' W 076°33'0 0.0
2017-Oct-09 02:59N 39°15' W 076°33'0 0.0
2017-Oct-09 02:17N 39°15' W 076°33'0 0.0
2017-Oct-09 01:59N 39°15' W 076°33'0 0.0
2017-Oct-09 01:23N 39°15' W 076°33'0 0.0
2017-Oct-09 00:59N 39°15' W 076°33'0 0.0
2017-Oct-09 00:29N 39°15' W 076°33'0 0.0
2017-Oct-08 23:59N 39°15' W 076°33'  

Dump ship's entire track history